Houei No.1 — JD3291 — position and weather

sailwx.info

Track history (hours):
 
Tides and Currents Weather Stations Pressure Air Temp Water Temp Dewpoint Dewpoint Depression Visibility Wind Speed Wind Dir Waves Ship Positions

Houei No.1

Last reported at 2018-Jul-16 10:48 UTC. Time now 2018-Jul-17 13:23 UTC.
Position N 34°25' E 134°21'.

Length 79 m; draft 5.3 m.

Type: Tanker. MMSI: 431003155.

Date/timePositionNaut miles runAvg speedWind from/ knotsBaromVisibWave heightAir tempDewpointWater temp
2018-Jul-16 10:48N 34°25' E 134°21'412.4
2018-Jul-16 10:30N 34°27' E 134°25'612.4
2018-Jul-16 10:01N 34°29' E 134°32'612.0
2018-Jul-16 09:30N 34°31' E 134°39'611.8
2018-Jul-16 09:00N 34°33' E 134°46'611.0
2018-Jul-16 08:29N 34°35' E 134°52'610.1
2018-Jul-16 07:54N 34°37' E 134°59'3 7.1
2018-Jul-16 07:29N 34°37' E 135°02'3 7.3
2018-Jul-16 07:00N 34°36' E 135°06'611.6
2018-Jul-16 06:30N 34°36' E 135°13'612.1
2018-Jul-16 06:00N 34°36' E 135°21'4 9.1
2018-Jul-16 05:30N 34°34' E 135°26'0 0.1
2018-Jul-16 04:56N 34°34' E 135°26'0 0.0
2018-Jul-15 22:38N 34°34' E 135°26'0 0.9
2018-Jul-15 22:30N 34°34' E 135°26'1 1.7
2018-Jul-15 22:00N 34°35' E 135°25'4 7.2
2018-Jul-15 21:30N 34°36' E 135°21'612.6
2018-Jul-15 21:00N 34°35' E 135°13'714.8
2018-Jul-15 20:30N 34°35' E 135°04'1514.4
2018-Jul-15 19:29N 34°32' E 134°47'714.1
2018-Jul-15 19:00N 34°30' E 134°39'714.1
2018-Jul-15 18:29N 34°27' E 134°31'16 0.5
2018-Jul-14 11:31N 34°25' E 134°13'014.4
2018-Jul-14 11:30N 34°25' E 134°13'713.7
2018-Jul-14 10:59N 34°22' E 134°21'612.6
2018-Jul-14 10:30N 34°20' E 134°28'1112.6
2018-Jul-14 09:36N 34°14' E 134°39'912.5
2018-Jul-14 08:52N 34°08' E 134°48'512.9
2018-Jul-14 08:30N 34°08' E 134°54'713.3
2018-Jul-14 07:58N 34°08' E 135°03'612.2
2018-Jul-14 07:30N 34°09' E 135°09'2 4.4
2018-Jul-14 07:00N 34°09' E 135°12'0 0.0
2018-Jul-14 06:26N 34°09' E 135°12'0 0.0
2018-Jul-14 05:59N 34°09' E 135°12'0 0.0
2018-Jul-14 05:26N 34°09' E 135°12'0 0.0
2018-Jul-14 04:56N 34°09' E 135°12'0 0.0
2018-Jul-14 04:26N 34°09' E 135°12'0 0.0
2018-Jul-14 03:56N 34°09' E 135°12'0 0.0
2018-Jul-14 03:26N 34°09' E 135°12'0 0.0
2018-Jul-14 02:59N 34°09' E 135°12'0 0.2
2018-Jul-14 02:29N 34°09' E 135°12'1 1.4
2018-Jul-14 02:00N 34°09' E 135°11'2 3.4
2018-Jul-14 01:29N 34°09' E 135°09'0 0.0
2018-Jul-14 00:59N 34°09' E 135°09'0 0.0
2018-Jul-14 00:29N 34°09' E 135°09'0 0.0
2018-Jul-13 23:56N 34°09' E 135°09'0 0.0
2018-Jul-13 23:29N 34°09' E 135°09'0 0.0
2018-Jul-13 22:59N 34°09' E 135°09'0 0.0
2018-Jul-13 22:29N 34°09' E 135°09'0 0.1
2018-Jul-13 21:59N 34°09' E 135°09'0 0.0
2018-Jul-13 21:23N 34°09' E 135°09'0 0.0
2018-Jul-13 20:59N 34°09' E 135°09'0 0.0
2018-Jul-13 20:23N 34°09' E 135°09'0 0.0
2018-Jul-13 19:50N 34°09' E 135°09'0 0.0
2018-Jul-13 19:26N 34°09' E 135°09'0 0.0
2018-Jul-13 18:58N 34°09' E 135°09'0 0.0
2018-Jul-13 18:29N 34°09' E 135°09'0 0.0
2018-Jul-13 17:59N 34°09' E 135°09'2 3.7
2018-Jul-13 17:31N 34°09' E 135°07'713.7
2018-Jul-13 17:00N 34°09' E 134°59'713.9
2018-Jul-13 16:30N 34°08' E 134°50'714.0
2018-Jul-13 15:59N 34°11' E 134°42'1014.5
2018-Jul-13 15:18N 34°18' E 134°33'514.3
2018-Jul-13 14:58N 34°19' E 134°28'  
2018-Jul-10 12:20N 34°25' E 134°23'612.7
2018-Jul-10 11:54N 34°27' E 134°30'512.5
2018-Jul-10 11:30N 34°29' E 134°35'612.5
2018-Jul-10 11:01N 34°32' E 134°42'814.5
2018-Jul-10 10:26N 34°35' E 134°52'914.3
2018-Jul-10 09:49N 34°37' E 135°02'412.9
2018-Jul-10 09:30N 34°36' E 135°07'612.2
2018-Jul-10 09:00N 34°36' E 135°14'612.1
2018-Jul-10 08:30N 34°37' E 135°21'4 0.7
2018-Jul-10 02:37N 34°39' E 135°25'0 0.2
2018-Jul-10 02:30N 34°39' E 135°25'5 9.7
2018-Jul-10 02:00N 34°36' E 135°20'2 2.6
2018-Jul-10 01:19N 34°36' E 135°18'0 0.0
2018-Jul-10 00:49N 34°36' E 135°18'0 0.0
2018-Jul-10 00:25N 34°36' E 135°18'0 0.0
2018-Jul-09 23:55N 34°36' E 135°18'0 0.0
2018-Jul-09 23:25N 34°36' E 135°18'0 0.0
2018-Jul-09 22:55N 34°36' E 135°18'0 0.0
2018-Jul-09 22:25N 34°36' E 135°18'0 0.0
2018-Jul-09 21:55N 34°36' E 135°18'0 0.0
2018-Jul-09 21:13N 34°36' E 135°18'0 0.0
2018-Jul-09 20:37N 34°36' E 135°18'0 0.1
2018-Jul-09 20:19N 34°36' E 135°18'2 7.4
2018-Jul-09 20:00N 34°35' E 135°16'613.0
2018-Jul-09 19:31N 34°35' E 135°08'612.5
2018-Jul-09 19:00N 34°37' E 135°01'1312.8
2018-Jul-09 18:00N 34°32' E 134°46'713.7
2018-Jul-09 17:28N 34°29' E 134°38'913.8
2018-Jul-09 16:50N 34°26' E 134°28'  
2018-Jul-06 14:52N 34°21' E 134°23'612.2
2018-Jul-06 14:24N 34°19' E 134°29'2212.2
2018-Jul-06 12:37N 34°09' E 134°53'111.6
2018-Jul-06 12:30N 34°09' E 134°54'611.5
2018-Jul-06 11:59N 34°09' E 135°02'611.8
2018-Jul-06 11:29N 34°09' E 135°09'  
Track history (hours):
 
Tides and Currents Weather Stations Pressure Air Temp Water Temp Dewpoint Dewpoint Depression Visibility Wind Speed Wind Dir Waves Ship Positions

Houei No.1

Last reported at 2018-Jul-16 10:48 UTC. Time now 2018-Jul-17 13:23 UTC.
Position N 34°25' E 134°21'.

Length 79 m; draft 5.3 m.

Type: Tanker. MMSI: 431003155.

Date/timePositionNaut miles runAvg speedWind from/ knotsBaromVisibWave heightAir tempDewpointWater temp
2018-Jul-16 10:48N 34°25' E 134°21'412.4
2018-Jul-16 10:30N 34°27' E 134°25'612.4
2018-Jul-16 10:01N 34°29' E 134°32'612.0
2018-Jul-16 09:30N 34°31' E 134°39'611.8
2018-Jul-16 09:00N 34°33' E 134°46'611.0
2018-Jul-16 08:29N 34°35' E 134°52'610.1
2018-Jul-16 07:54N 34°37' E 134°59'3 7.1
2018-Jul-16 07:29N 34°37' E 135°02'3 7.3
2018-Jul-16 07:00N 34°36' E 135°06'611.6
2018-Jul-16 06:30N 34°36' E 135°13'612.1
2018-Jul-16 06:00N 34°36' E 135°21'4 9.1
2018-Jul-16 05:30N 34°34' E 135°26'0 0.1
2018-Jul-16 04:56N 34°34' E 135°26'0 0.0
2018-Jul-15 22:38N 34°34' E 135°26'0 0.9
2018-Jul-15 22:30N 34°34' E 135°26'1 1.7
2018-Jul-15 22:00N 34°35' E 135°25'4 7.2
2018-Jul-15 21:30N 34°36' E 135°21'612.6
2018-Jul-15 21:00N 34°35' E 135°13'714.8
2018-Jul-15 20:30N 34°35' E 135°04'1514.4
2018-Jul-15 19:29N 34°32' E 134°47'714.1
2018-Jul-15 19:00N 34°30' E 134°39'714.1
2018-Jul-15 18:29N 34°27' E 134°31'16 0.5
2018-Jul-14 11:31N 34°25' E 134°13'014.4
2018-Jul-14 11:30N 34°25' E 134°13'713.7
2018-Jul-14 10:59N 34°22' E 134°21'612.6
2018-Jul-14 10:30N 34°20' E 134°28'1112.6
2018-Jul-14 09:36N 34°14' E 134°39'912.5
2018-Jul-14 08:52N 34°08' E 134°48'512.9
2018-Jul-14 08:30N 34°08' E 134°54'713.3
2018-Jul-14 07:58N 34°08' E 135°03'612.2
2018-Jul-14 07:30N 34°09' E 135°09'2 4.4
2018-Jul-14 07:00N 34°09' E 135°12'0 0.0
2018-Jul-14 06:26N 34°09' E 135°12'0 0.0
2018-Jul-14 05:59N 34°09' E 135°12'0 0.0
2018-Jul-14 05:26N 34°09' E 135°12'0 0.0
2018-Jul-14 04:56N 34°09' E 135°12'0 0.0
2018-Jul-14 04:26N 34°09' E 135°12'0 0.0
2018-Jul-14 03:56N 34°09' E 135°12'0 0.0
2018-Jul-14 03:26N 34°09' E 135°12'0 0.0
2018-Jul-14 02:59N 34°09' E 135°12'0 0.2
2018-Jul-14 02:29N 34°09' E 135°12'1 1.4
2018-Jul-14 02:00N 34°09' E 135°11'2 3.4
2018-Jul-14 01:29N 34°09' E 135°09'0 0.0
2018-Jul-14 00:59N 34°09' E 135°09'0 0.0
2018-Jul-14 00:29N 34°09' E 135°09'0 0.0
2018-Jul-13 23:56N 34°09' E 135°09'0 0.0
2018-Jul-13 23:29N 34°09' E 135°09'0 0.0
2018-Jul-13 22:59N 34°09' E 135°09'0 0.0
2018-Jul-13 22:29N 34°09' E 135°09'0 0.1
2018-Jul-13 21:59N 34°09' E 135°09'0 0.0
2018-Jul-13 21:23N 34°09' E 135°09'0 0.0
2018-Jul-13 20:59N 34°09' E 135°09'0 0.0
2018-Jul-13 20:23N 34°09' E 135°09'0 0.0
2018-Jul-13 19:50N 34°09' E 135°09'0 0.0
2018-Jul-13 19:26N 34°09' E 135°09'0 0.0
2018-Jul-13 18:58N 34°09' E 135°09'0 0.0
2018-Jul-13 18:29N 34°09' E 135°09'0 0.0
2018-Jul-13 17:59N 34°09' E 135°09'2 3.7
2018-Jul-13 17:31N 34°09' E 135°07'713.7
2018-Jul-13 17:00N 34°09' E 134°59'713.9
2018-Jul-13 16:30N 34°08' E 134°50'714.0
2018-Jul-13 15:59N 34°11' E 134°42'1014.5
2018-Jul-13 15:18N 34°18' E 134°33'514.3
2018-Jul-13 14:58N 34°19' E 134°28'  
2018-Jul-10 12:20N 34°25' E 134°23'612.7
2018-Jul-10 11:54N 34°27' E 134°30'512.5
2018-Jul-10 11:30N 34°29' E 134°35'612.5
2018-Jul-10 11:01N 34°32' E 134°42'814.5
2018-Jul-10 10:26N 34°35' E 134°52'914.3
2018-Jul-10 09:49N 34°37' E 135°02'412.9
2018-Jul-10 09:30N 34°36' E 135°07'612.2
2018-Jul-10 09:00N 34°36' E 135°14'612.1
2018-Jul-10 08:30N 34°37' E 135°21'4 0.7
2018-Jul-10 02:37N 34°39' E 135°25'0 0.2
2018-Jul-10 02:30N 34°39' E 135°25'5 9.7
2018-Jul-10 02:00N 34°36' E 135°20'2 2.6
2018-Jul-10 01:19N 34°36' E 135°18'0 0.0
2018-Jul-10 00:49N 34°36' E 135°18'0 0.0
2018-Jul-10 00:25N 34°36' E 135°18'0 0.0
2018-Jul-09 23:55N 34°36' E 135°18'0 0.0
2018-Jul-09 23:25N 34°36' E 135°18'0 0.0
2018-Jul-09 22:55N 34°36' E 135°18'0 0.0
2018-Jul-09 22:25N 34°36' E 135°18'0 0.0
2018-Jul-09 21:55N 34°36' E 135°18'0 0.0
2018-Jul-09 21:13N 34°36' E 135°18'0 0.0
2018-Jul-09 20:37N 34°36' E 135°18'0 0.1
2018-Jul-09 20:19N 34°36' E 135°18'2 7.4
2018-Jul-09 20:00N 34°35' E 135°16'613.0
2018-Jul-09 19:31N 34°35' E 135°08'612.5
2018-Jul-09 19:00N 34°37' E 135°01'1312.8
2018-Jul-09 18:00N 34°32' E 134°46'713.7
2018-Jul-09 17:28N 34°29' E 134°38'913.8
2018-Jul-09 16:50N 34°26' E 134°28'  
2018-Jul-06 14:52N 34°21' E 134°23'612.2
2018-Jul-06 14:24N 34°19' E 134°29'2212.2
2018-Jul-06 12:37N 34°09' E 134°53'111.6
2018-Jul-06 12:30N 34°09' E 134°54'611.5
2018-Jul-06 11:59N 34°09' E 135°02'611.8
2018-Jul-06 11:29N 34°09' E 135°09'  

Dump ship's entire track history